Time;durP1;ratioP1;P1;durP2;ratioP2;P2;SDS_P1;SDS_P2;PMS_P1;PMS_P2;Temp;Humidity;BMP_temperature;BMP_pressure;BME280_temperature;BME280_humidity;BME280_pressure;Samples;Min_cycle;Max_cycle;Signal;HPM_P1;HPM_P2
2024/01/12 00:01:21;;;;;;;;;;;;;;;-0.85;90.45;103326.81;5040915;28;20284;-72
2024/01/12 00:03:47;;;;;;;;;;;;;;;-0.85;91.40;103334.53;5039968;28;20368;-72
2024/01/12 00:06:13;;;;;;;;;;;;;;;-0.87;90.78;103330.16;5087493;28;19913;-72
2024/01/12 00:08:40;;;;;;;;;;;;;;;-0.87;91.50;103331.84;5062706;28;20376;-72
2024/01/12 00:11:09;;;;;;;;;;;;;;;-0.86;92.87;103328.50;5072199;28;19986;-72
2024/01/12 00:13:34;;;;;;;;;;;;;;;-0.87;92.67;103327.59;5074539;28;19962;-72
2024/01/12 00:16:03;;;;;;;;;;;;;;;-0.84;93.73;103341.50;5064856;28;19924;-72
2024/01/12 00:18:29;;;;;;;;;;;;;;;-0.84;93.81;103336.34;5047080;28;19959;-71
2024/01/12 00:20:54;;;;;;;;;;;;;;;-0.87;92.23;103334.44;5065003;28;20034;-72
2024/01/12 00:23:19;;;;;;;;;;;;;;;-0.88;92.00;103330.97;5065646;28;20019;-72
2024/01/12 00:25:45;;;;;;;;;;;;;;;-0.89;91.64;103335.97;5070138;28;19924;-72
2024/01/12 00:28:10;;;;;;;;;;;;;;;-0.90;93.44;103336.78;5056630;28;19969;-72
2024/01/12 00:30:35;;;;;;;;;;;;;;;-0.92;93.60;103339.25;5065240;28;20283;-72
2024/01/12 00:33:01;;;;;;;;;;;;;;;-0.92;93.24;103333.16;5090619;28;20393;-72
2024/01/12 00:35:28;;;;;;;;;;;;;;;-0.95;93.84;103335.50;5041992;28;20023;-72
2024/01/12 00:37:53;;;;;;;;;;;;;;;-0.95;94.38;103338.09;5037188;28;20653;-72
2024/01/12 00:40:21;;;;;;;;;;;;;;;-0.92;94.60;103339.25;5037096;28;19921;-72
2024/01/12 00:42:46;;;;;;;;;;;;;;;-0.92;94.93;103339.25;5053492;28;19970;-72
2024/01/12 00:45:12;;;;;;;;;;;;;;;-0.91;94.86;103340.13;5037830;28;20033;-72
2024/01/12 00:47:38;;;;;;;;;;;;;;;-0.90;95.32;103337.66;5052687;28;19924;-72
2024/01/12 00:50:04;;;;;;;;;;;;;;;-0.89;95.19;103338.53;5057373;28;19916;-72
2024/01/12 00:52:29;;;;;;;;;;;;;;;-0.92;95.61;103334.09;5056200;28;19931;-75
2024/01/12 00:54:54;;;;;;;;;;;;;;;-0.91;95.37;103334.97;5047414;28;19990;-75
2024/01/12 00:57:19;;;;;;;;;;;;;;;-0.91;94.75;103334.97;5033070;28;20015;-75
2024/01/12 00:59:45;;;;;;;;;;;;;;;-0.89;94.18;103333.41;5029347;28;20365;-75
2024/01/12 01:02:10;;;;;;;;;;;;;;;-0.89;93.95;103339.47;5035556;28;19921;-75
2024/01/12 01:04:36;;;;;;;;;;;;;;;-0.89;95.00;103339.47;5037474;28;19916;-75
2024/01/12 01:07:01;;;;;;;;;;;;;;;-0.86;91.12;103338.81;5033680;28;19921;-75
2024/01/12 01:09:27;;;;;;;;;;;;;;;-0.85;90.48;103344.84;5053101;28;20010;-75
2024/01/12 01:11:52;;;;;;;;;;;;;;;-0.89;90.76;103338.53;5035267;28;20283;-75
2024/01/12 01:14:18;;;;;;;;;;;;;;;-0.90;92.76;103341.91;5048080;28;19921;-75
2024/01/12 01:16:43;;;;;;;;;;;;;;;-0.91;93.55;103355.56;5048290;28;19921;-75
2024/01/12 01:19:08;;;;;;;;;;;;;;;-0.90;94.12;103349.66;5053318;28;20288;-75
2024/01/12 01:21:34;;;;;;;;;;;;;;;-0.91;95.01;103347.84;5030148;28;19931;-75
2024/01/12 01:23:59;;;;;;;;;;;;;;;-0.91;94.48;103348.72;5043231;28;19928;-75
2024/01/12 01:26:24;;;;;;;;;;;;;;;-0.89;94.32;103343.69;5022083;28;20327;-75
2024/01/12 01:28:50;;;;;;;;;;;;;;;-0.89;95.04;103354.91;5045860;28;19932;-75
2024/01/12 01:31:15;;;;;;;;;;;;;;;-0.85;95.26;103365.44;5042414;28;19924;-75
2024/01/12 01:33:40;;;;;;;;;;;;;;;-0.85;95.38;103376.63;5051394;28;19921;-75
2024/01/12 01:36:06;;;;;;;;;;;;;;;-0.83;95.55;103390.53;5057840;28;19929;-75
2024/01/12 01:38:31;;;;;;;;;;;;;;;-0.83;95.25;103380.22;5051101;28;20400;-75
2024/01/12 01:40:57;;;;;;;;;;;;;;;-0.83;95.36;103390.53;5021681;28;20030;-75
2024/01/12 01:43:22;;;;;;;;;;;;;;;-0.82;94.34;103382.03;5036058;28;20040;-75
2024/01/12 01:45:47;;;;;;;;;;;;;;;-0.80;95.00;103384.72;5036893;28;19924;-75
2024/01/12 01:48:13;;;;;;;;;;;;;;;-0.81;95.32;103383.78;5024890;28;20015;-75
2024/01/12 01:50:39;;;;;;;;;;;;;;;-0.79;95.48;103376.19;5021802;28;19921;-75
2024/01/12 01:53:05;;;;;;;;;;;;;;;-0.79;95.44;103369.38;5027891;28;19924;-75
2024/01/12 01:55:31;;;;;;;;;;;;;;;-0.79;95.66;103376.19;5059343;28;19925;-75
2024/01/12 01:57:58;;;;;;;;;;;;;;;-0.79;95.75;103377.09;5063787;28;20292;-75
2024/01/12 02:00:23;;;;;;;;;;;;;;;-0.79;95.52;103369.38;5100414;22;19975;-74
2024/01/12 02:02:48;;;;;;;;;;;;;;;-0.80;93.33;103370.16;5034752;28;20217;-76
2024/01/12 02:05:14;;;;;;;;;;;;;;;-0.80;94.76;103367.56;5003396;28;20444;-76
2024/01/12 02:07:40;;;;;;;;;;;;;;;-0.78;91.50;103363.41;5030658;28;19924;-75
2024/01/12 02:10:06;;;;;;;;;;;;;;;-0.80;94.35;103365.00;5023110;28;20003;-75
2024/01/12 02:12:33;;;;;;;;;;;;;;;-0.79;94.97;103364.22;5008682;28;20426;-76
2024/01/12 02:14:59;;;;;;;;;;;;;;;-0.80;94.95;103353.81;5012306;28;19917;-76
2024/01/12 02:17:24;;;;;;;;;;;;;;;-0.80;95.58;103353.81;4998718;28;19996;-75
2024/01/12 02:19:56;;;;;;;;;;;;;;;-0.81;95.23;103355.47;5001254;28;19929;-75
2024/01/12 02:22:21;;;;;;;;;;;;;;;-0.82;96.29;103350.22;5003678;28;21095;-75
2024/01/12 02:24:46;;;;;;;;;;;;;;;-0.82;96.34;103348.56;5095010;23;20379;-72
2024/01/12 02:27:12;;;;;;;;;;;;;;;-0.82;96.39;103351.13;5053100;28;19928;-72
2024/01/12 02:29:37;;;;;;;;;;;;;;;-0.81;96.32;103352.91;5057439;28;19958;-72
2024/01/12 02:32:02;;;;;;;;;;;;;;;-0.79;96.09;103350.44;5013741;28;19925;-72
2024/01/12 02:34:28;;;;;;;;;;;;;;;-0.80;96.17;103354.69;5018322;28;19917;-72
2024/01/12 02:36:53;;;;;;;;;;;;;;;-0.80;96.39;103354.69;5004673;28;19925;-72
2024/01/12 02:39:18;;;;;;;;;;;;;;;-0.81;95.80;103352.91;5019160;28;19920;-72
2024/01/12 02:41:43;;;;;;;;;;;;;;;-0.80;96.19;103349.56;5420547;23;19924;-75
2024/01/12 02:44:09;;;;;;;;;;;;;;;-0.79;94.86;103356.50;5102620;23;20321;-74
2024/01/12 02:46:34;;;;;;;;;;;;;;;-0.80;94.17;103348.66;5054997;28;19972;-75
2024/01/12 02:49:00;;;;;;;;;;;;;;;-0.80;95.58;103351.25;5032640;28;19921;-75
2024/01/12 02:51:25;;;;;;;;;;;;;;;-0.81;95.64;103347.75;5047854;28;19975;-76
2024/01/12 02:53:51;;;;;;;;;;;;;;;-0.79;95.70;103350.44;5034387;28;20008;-76
2024/01/12 02:56:16;;;;;;;;;;;;;;;-0.79;95.90;103345.28;5065247;28;20356;-75
2024/01/12 02:58:41;;;;;;;;;;;;;;;-0.77;96.76;103344.63;5043856;28;20339;-75
2024/01/12 03:01:07;;;;;;;;;;;;;;;-0.79;95.91;103341.06;5053613;28;19943;-75
2024/01/12 03:03:32;;;;;;;;;;;;;;;-0.78;96.19;103340.25;5053646;28;19925;-76
2024/01/12 03:05:57;;;;;;;;;;;;;;;-0.79;96.49;103341.06;5054726;28;20375;-76
2024/01/12 03:08:23;;;;;;;;;;;;;;;-0.78;96.04;103341.94;5047303;28;19927;-76
2024/01/12 03:10:48;;;;;;;;;;;;;;;-0.78;96.71;103345.41;5053340;28;19932;-76
2024/01/12 03:13:13;;;;;;;;;;;;;;;-0.78;96.98;103345.41;5028737;28;19931;-76
2024/01/12 03:15:39;;;;;;;;;;;;;;;-0.78;96.95;103337.69;5042016;28;19928;-76
2024/01/12 03:18:04;;;;;;;;;;;;;;;-0.77;96.37;103338.59;5055853;28;19932;-76
2024/01/12 03:20:30;;;;;;;;;;;;;;;-0.78;97.08;103331.66;5053529;28;19975;-76
2024/01/12 03:22:55;;;;;;;;;;;;;;;-0.78;97.27;103326.50;5054754;28;20395;-76
2024/01/12 03:25:20;;;;;;;;;;;;;;;-0.79;96.74;103330.75;5064275;28;20094;-72
2024/01/12 03:27:45;;;;;;;;;;;;;;;-0.80;95.90;103328.97;5050955;28;19921;-72
2024/01/12 03:30:11;;;;;;;;;;;;;;;-0.81;96.51;103327.16;5043685;28;19924;-72
2024/01/12 03:32:36;;;;;;;;;;;;;;;-0.83;96.69;103327.81;5030409;28;19920;-72
2024/01/12 03:35:03;;;;;;;;;;;;;;;-0.82;96.67;103325.38;5054263;28;20438;-72
2024/01/12 03:37:28;;;;;;;;;;;;;;;-0.82;97.14;103327.97;5050254;28;19999;-72
2024/01/12 03:39:54;;;;;;;;;;;;;;;-0.81;97.03;103327.16;5069580;28;19939;-72
2024/01/12 03:42:19;;;;;;;;;;;;;;;-0.80;95.50;103323.81;5053703;28;19924;-72
2024/01/12 03:44:45;;;;;;;;;;;;;;;-0.80;96.56;103317.78;5053021;28;19929;-72
2024/01/12 03:47:10;;;;;;;;;;;;;;;-0.80;96.66;103322.91;5045811;28;19935;-72
2024/01/12 03:49:35;;;;;;;;;;;;;;;-0.80;95.10;103317.78;5059416;28;19959;-72
2024/01/12 03:52:01;;;;;;;;;;;;;;;-0.79;95.81;103317.88;5045595;28;19970;-72
2024/01/12 03:54:26;;;;;;;;;;;;;;;-0.79;94.91;103315.31;5035898;28;19921;-72
2024/01/12 03:56:52;;;;;;;;;;;;;;;-0.80;94.86;103308.34;5044523;28;19921;-72
2024/01/12 03:59:17;;;;;;;;;;;;;;;-0.83;96.01;103310.72;5060465;28;19921;-72
2024/01/12 04:01:46;;;;;;;;;;;;;;;-0.83;95.89;103313.28;5049468;28;20030;-72
2024/01/12 04:04:12;;;;;;;;;;;;;;;-0.82;96.15;103306.44;5044447;28;20284;-72
2024/01/12 04:06:37;;;;;;;;;;;;;;;-0.82;96.46;103304.78;5047280;28;19923;-72
2024/01/12 04:09:03;;;;;;;;;;;;;;;-0.82;97.78;103296.16;5043768;28;20339;-72
2024/01/12 04:11:28;;;;;;;;;;;;;;;-0.82;97.73;103309.94;5065438;28;19927;-72
2024/01/12 04:13:53;;;;;;;;;;;;;;;-0.82;97.47;103304.78;5042979;28;19921;-72
2024/01/12 04:16:19;;;;;;;;;;;;;;;-0.81;97.06;103303.97;5048045;28;19967;-72
2024/01/12 04:18:45;;;;;;;;;;;;;;;-0.81;95.87;103306.56;5050845;28;20316;-72
2024/01/12 04:21:10;;;;;;;;;;;;;;;-0.80;97.01;103299.75;5053347;28;20386;-72
2024/01/12 04:23:37;;;;;;;;;;;;;;;-0.80;97.56;103303.22;5021145;28;20398;-72
2024/01/12 04:26:02;;;;;;;;;;;;;;;-0.78;97.39;103317.06;5050893;28;19921;-72
2024/01/12 04:28:27;;;;;;;;;;;;;;;-0.79;97.35;103312.72;5060717;28;19928;-72
2024/01/12 04:30:53;;;;;;;;;;;;;;;-0.78;97.41;103314.50;5039311;28;19928;-72
2024/01/12 04:33:18;;;;;;;;;;;;;;;-0.77;97.78;103318.88;5050652;28;19978;-72
2024/01/12 04:35:43;;;;;;;;;;;;;;;-0.77;97.71;103313.72;5059690;28;19970;-72
2024/01/12 04:38:09;;;;;;;;;;;;;;;-0.76;95.73;103323.25;5042732;28;19924;-72
2024/01/12 04:40:35;;;;;;;;;;;;;;;-0.77;96.49;103321.47;5029601;28;19975;-72
2024/01/12 04:43:00;;;;;;;;;;;;;;;-0.76;97.18;103323.25;5023389;28;19925;-72
2024/01/12 04:45:25;;;;;;;;;;;;;;;-0.76;96.54;103315.53;5036682;28;19928;-72
2024/01/12 04:47:51;;;;;;;;;;;;;;;-0.75;96.87;103317.34;5044756;28;19924;-72
2024/01/12 04:50:16;;;;;;;;;;;;;;;-0.76;97.37;103310.38;5052303;28;19931;-72
2024/01/12 04:52:41;;;;;;;;;;;;;;;-0.74;97.54;103313.94;5050234;28;19917;-72
2024/01/12 04:55:07;;;;;;;;;;;;;;;-0.73;95.26;103310.59;5060645;28;19963;-72
2024/01/12 04:57:32;;;;;;;;;;;;;;;-0.72;96.58;103316.63;5039868;28;19925;-72
2024/01/12 04:59:57;;;;;;;;;;;;;;;-0.71;97.22;103315.88;5046137;28;20018;-72
2024/01/12 05:02:23;;;;;;;;;;;;;;;-0.74;97.82;103318.22;5037096;28;20376;-72
2024/01/12 05:04:48;;;;;;;;;;;;;;;-0.76;96.23;103312.97;5054066;28;20430;-72
2024/01/12 05:07:13;;;;;;;;;;;;;;;-0.77;96.16;103303.44;5055420;28;19923;-72
2024/01/12 05:09:39;;;;;;;;;;;;;;;-0.77;95.76;103289.69;5035721;28;19921;-72
2024/01/12 05:12:04;;;;;;;;;;;;;;;-0.77;97.78;103282.84;5054355;28;20233;-72
2024/01/12 05:14:31;;;;;;;;;;;;;;;-0.76;98.34;103283.72;5057246;28;19924;-72
2024/01/12 05:16:56;;;;;;;;;;;;;;;-0.75;98.47;103296.75;5071904;28;19920;-72
2024/01/12 05:19:21;;;;;;;;;;;;;;;-0.78;98.78;103295.59;5053911;28;20359;-72
2024/01/12 05:21:47;;;;;;;;;;;;;;;-0.78;97.79;103288.75;5048371;28;19931;-72
2024/01/12 05:24:12;;;;;;;;;;;;;;;-0.75;97.10;103290.66;5033882;28;19920;-72
2024/01/12 05:26:37;;;;;;;;;;;;;;;-0.76;97.32;103286.28;5053005;28;20319;-72
2024/01/12 05:29:03;;;;;;;;;;;;;;;-0.78;97.79;103281.03;5051953;28;19960;-72
2024/01/12 05:31:28;;;;;;;;;;;;;;;-0.77;97.75;103290.56;5052417;28;19976;-72
2024/01/12 05:33:53;;;;;;;;;;;;;;;-0.75;97.00;103285.53;5063420;28;20197;-72
2024/01/12 05:36:19;;;;;;;;;;;;;;;-0.75;97.01;103281.28;5051913;28;20031;-72
2024/01/12 05:38:47;;;;;;;;;;;;;;;-0.75;96.07;103289.00;5052877;28;19921;-75
2024/01/12 05:41:14;;;;;;;;;;;;;;;-0.75;96.96;103296.75;5054116;28;19987;-75
2024/01/12 05:43:40;;;;;;;;;;;;;;;-0.74;96.56;103292.47;5050883;28;19936;-75
2024/01/12 05:46:07;;;;;;;;;;;;;;;-0.74;95.58;103305.34;5056530;28;20380;-75
2024/01/12 05:48:33;;;;;;;;;;;;;;;-0.74;95.86;103301.09;5039855;28;19921;-75
2024/01/12 05:50:59;;;;;;;;;;;;;;;-0.73;96.77;103304.56;5030175;28;20292;-76
2024/01/12 05:53:25;;;;;;;;;;;;;;;-0.75;96.47;103294.16;5049106;28;19921;-75
2024/01/12 05:55:54;;;;;;;;;;;;;;;-0.73;96.89;103300.31;5055357;28;19916;-75
2024/01/12 05:58:19;;;;;;;;;;;;;;;-0.72;97.71;103312.41;5056197;28;19916;-76
2024/01/12 06:00:45;;;;;;;;;;;;;;;-0.72;97.49;103312.41;5057725;28;19932;-76
2024/01/12 06:03:11;;;;;;;;;;;;;;;-0.70;97.86;103315.09;5037549;28;19925;-76
2024/01/12 06:05:36;;;;;;;;;;;;;;;-0.70;98.45;103313.41;5032721;28;19928;-76
2024/01/12 06:08:01;;;;;;;;;;;;;;;-0.73;96.86;103315.75;5053135;28;19920;-76
2024/01/12 06:10:26;;;;;;;;;;;;;;;-0.74;97.92;103311.38;5043508;28;19921;-76
2024/01/12 06:12:54;;;;;;;;;;;;;;;-0.73;98.18;103313.19;5053176;28;19928;-76
2024/01/12 06:15:20;;;;;;;;;;;;;;;-0.69;98.67;103322.00;5048931;28;19958;-72
2024/01/12 06:17:45;;;;;;;;;;;;;;;-0.68;97.90;103317.78;5045079;28;19925;-72
2024/01/12 06:20:10;;;;;;;;;;;;;;;-0.67;98.29;103320.47;5038198;28;19925;-72
2024/01/12 06:22:36;;;;;;;;;;;;;;;-0.65;98.21;103318.88;5046377;28;19925;-72
2024/01/12 06:25:01;;;;;;;;;;;;;;;-0.63;98.57;103322.50;5038007;28;20425;-72
2024/01/12 06:27:26;;;;;;;;;;;;;;;-0.60;96.88;103326.97;5051257;28;19920;-72
2024/01/12 06:29:52;;;;;;;;;;;;;;;-0.59;97.14;103328.75;5042128;28;19975;-72
2024/01/12 06:32:20;;;;;;;;;;;;;;;-0.57;97.21;103324.63;5060326;28;19927;-72
2024/01/12 06:34:47;;;;;;;;;;;;;;;-0.54;98.19;103322.28;5042857;28;20364;-72
2024/01/12 06:37:12;;;;;;;;;;;;;;;-0.52;98.00;103323.25;5050019;28;19920;-72
2024/01/12 06:39:39;;;;;;;;;;;;;;;-0.52;97.71;103320.69;5055379;28;19920;-72
2024/01/12 06:42:04;;;;;;;;;;;;;;;-0.51;98.32;103337.06;5047582;28;19932;-72
2024/01/12 06:44:29;;;;;;;;;;;;;;;-0.54;98.55;103336.03;5046418;28;19921;-72
2024/01/12 06:46:55;;;;;;;;;;;;;;;-0.55;98.01;103326.53;5019786;28;19928;-72
2024/01/12 06:49:20;;;;;;;;;;;;;;;-0.54;96.04;103335.16;5049724;28;19967;-72
2024/01/12 06:51:46;;;;;;;;;;;;;;;-0.53;97.50;103331.81;5039416;28;20407;-72
2024/01/12 06:54:12;;;;;;;;;;;;;;;-0.51;98.45;103329.34;5045033;28;20011;-77
2024/01/12 06:56:38;;;;;;;;;;;;;;;-0.51;97.75;103322.50;5037949;28;20014;-77
2024/01/12 06:59:04;;;;;;;;;;;;;;;-0.47;98.33;103323.63;5068697;28;19916;-77
2024/01/12 07:01:29;;;;;;;;;;;;;;;-0.46;98.30;103321.16;5052022;28;19924;-77
2024/01/12 07:03:55;;;;;;;;;;;;;;;-0.41;96.88;103321.50;5071858;28;19978;-78
2024/01/12 07:06:20;;;;;;;;;;;;;;;-0.39;97.98;103323.41;5048102;28;19924;-78
2024/01/12 07:08:45;;;;;;;;;;;;;;;-0.38;97.44;103325.16;5047970;28;19923;-78
2024/01/12 07:11:11;;;;;;;;;;;;;;;-0.36;97.68;103327.84;5045867;28;20333;-78
2024/01/12 07:13:36;;;;;;;;;;;;;;;-0.35;98.01;103325.38;5050795;28;20331;-78
2024/01/12 07:16:01;;;;;;;;;;;;;;;-0.31;97.99;103311.06;5038823;28;19924;-78
2024/01/12 07:18:27;;;;;;;;;;;;;;;-0.27;97.20;103304.47;5053544;28;20375;-78
2024/01/12 07:20:55;;;;;;;;;;;;;;;-0.25;97.60;103300.31;5070349;28;20011;-78
2024/01/12 07:23:20;;;;;;;;;;;;;;;-0.23;97.39;103303.88;5050084;28;19924;-78
2024/01/12 07:25:45;;;;;;;;;;;;;;;-0.19;96.14;103305.91;5034421;28;19923;-79
2024/01/12 07:28:11;;;;;;;;;;;;;;;-0.18;97.89;103310.28;5046390;28;19971;-78
2024/01/12 07:30:36;;;;;;;;;;;;;;;-0.22;95.95;103301.41;5066052;28;20395;-78
2024/01/12 07:33:02;;;;;;;;;;;;;;;-0.24;94.73;103296.97;5052061;28;19924;-78
2024/01/12 07:35:28;;;;;;;;;;;;;;;-0.19;93.99;103303.31;5044226;28;19924;-78
2024/01/12 07:37:53;;;;;;;;;;;;;;;-0.18;94.21;103308.56;5060787;28;19924;-78
2024/01/12 07:40:18;;;;;;;;;;;;;;;-0.16;94.95;103308.69;5052190;28;20327;-78
2024/01/12 07:42:43;;;;;;;;;;;;;;;-0.16;95.55;103313.84;5068093;28;19972;-78
2024/01/12 07:45:10;;;;;;;;;;;;;;;-0.18;97.06;103315.44;5054145;28;19963;-78
2024/01/12 07:47:36;;;;;;;;;;;;;;;-0.17;97.42;103306.91;5062831;28;19960;-78
2024/01/12 07:50:01;;;;;;;;;;;;;;;-0.15;98.02;103304.44;5034665;28;19953;-78
2024/01/12 07:52:27;;;;;;;;;;;;;;;-0.14;98.61;103301.06;5029316;28;20300;-78
2024/01/12 07:54:53;;;;;;;;;;;;;;;-0.13;98.70;103303.78;5059882;28;19916;-78
2024/01/12 07:57:18;;;;;;;;;;;;;;;-0.08;96.40;103299.84;5053020;28;19920;-78
2024/01/12 07:59:43;;;;;;;;;;;;;;;-0.07;95.49;103293.91;5071726;28;20284;-78
2024/01/12 08:02:09;;;;;;;;;;;;;;;-0.04;95.18;103306.13;5054275;28;19974;-78
2024/01/12 08:04:36;;;;;;;;;;;;;;;-0.04;97.00;103311.28;5054197;28;19923;-78
2024/01/12 08:07:03;;;;;;;;;;;;;;;-0.06;98.17;103299.94;5066847;28;19917;-78
2024/01/12 08:09:28;;;;;;;;;;;;;;;-0.07;97.77;103306.78;5062064;28;19936;-78
2024/01/12 08:11:53;;;;;;;;;;;;;;;-0.06;97.70;103313.75;5051653;28;20275;-78
2024/01/12 08:14:18;;;;;;;;;;;;;;;-0.04;98.36;103311.28;5044572;28;20382;-78
2024/01/12 08:16:44;;;;;;;;;;;;;;;-0.01;99.05;103314.94;5041365;28;19916;-78
2024/01/12 08:19:09;;;;;;;;;;;;;;;0.01;99.48;103315.06;5035896;28;19924;-79
2024/01/12 08:21:34;;;;;;;;;;;;;;;0.03;97.49;103322.91;5033774;28;19925;-78
2024/01/12 08:24:00;;;;;;;;;;;;;;;0.04;98.87;103320.44;5029635;28;19925;-79
2024/01/12 08:26:25;;;;;;;;;;;;;;;0.07;98.96;103310.34;5051483;28;19954;-79
2024/01/12 08:28:54;;;;;;;;;;;;;;;0.12;99.05;103323.56;5053515;28;19946;-79
2024/01/12 08:31:20;;;;;;;;;;;;;;;0.14;99.66;103322.91;5041285;28;19975;-73
2024/01/12 08:33:48;;;;;;;;;;;;;;;0.17;99.57;103329.94;5064275;28;19960;-73
2024/01/12 08:36:13;;;;;;;;;;;;;;;0.23;99.87;103325.22;5046857;28;19928;-78
2024/01/12 08:38:40;;;;;;;;;;;;;;;0.27;99.83;103319.47;5061440;28;20380;-79
2024/01/12 08:41:05;;;;;;;;;;;;;;;0.32;99.87;103318.13;5041428;28;19924;-78
2024/01/12 08:43:30;;;;;;;;;;;;;;;0.37;100.00;103321.00;5039762;28;20257;-79
2024/01/12 08:45:56;;;;;;;;;;;;;;;0.42;99.92;103313.63;5045360;28;20395;-79
2024/01/12 08:48:22;;;;;;;;;;;;;;;0.45;100.00;103322.47;5052880;28;19924;-78
2024/01/12 08:50:47;;;;;;;;;;;;;;;0.51;100.00;103325.44;5036687;28;20132;-79
2024/01/12 08:53:13;;;;;;;;;;;;;;;0.56;99.81;103315.47;5060557;28;20269;-78
2024/01/12 08:55:38;;;;;;;;;;;;;;;0.60;99.92;103325.19;5056962;28;19917;-79
2024/01/12 08:58:03;;;;;;;;;;;;;;;0.64;99.60;103321.16;5070168;28;19925;-74
2024/01/12 09:00:29;;;;;;;;;;;;;;;0.69;99.13;103323.25;5064819;28;20253;-74
2024/01/12 09:02:54;;;;;;;;;;;;;;;0.74;98.59;103320.09;5067768;28;19967;-73
2024/01/12 09:05:20;;;;;;;;;;;;;;;0.78;99.46;103314.38;5051607;28;20394;-73
2024/01/12 09:07:45;;;;;;;;;;;;;;;0.86;99.70;103320.91;5051360;28;19985;-73
2024/01/12 09:10:11;;;;;;;;;;;;;;;0.91;99.97;103314.41;5056512;28;20372;-73
2024/01/12 09:12:37;;;;;;;;;;;;;;;0.97;100.00;103314.81;5065055;28;19948;-73
2024/01/12 09:15:03;;;;;;;;;;;;;;;1.00;99.73;103316.69;5058756;28;19916;-74
2024/01/12 09:17:29;;;;;;;;;;;;;;;1.06;99.22;103311.06;5049473;28;19927;-74
2024/01/12 09:19:54;;;;;;;;;;;;;;;1.10;99.33;103313.06;5054275;28;19922;-74
2024/01/12 09:22:20;;;;;;;;;;;;;;;1.14;99.43;103309.91;5040080;28;19929;-73
2024/01/12 09:24:45;;;;;;;;;;;;;;;1.18;99.76;103306.72;5053752;28;20049;-73
2024/01/12 09:27:11;;;;;;;;;;;;;;;1.24;99.80;103312.28;5059730;28;20382;-73
2024/01/12 09:29:36;;;;;;;;;;;;;;;1.28;99.25;103319.44;5059805;28;19923;-73
2024/01/12 09:32:01;;;;;;;;;;;;;;;1.32;99.21;103323.13;5040010;28;19947;-74
2024/01/12 09:34:27;;;;;;;;;;;;;;;1.35;99.22;103315.56;5057096;28;20120;-74
2024/01/12 09:36:53;;;;;;;;;;;;;;;1.38;99.33;103321.84;5073609;28;19912;-74
2024/01/12 09:39:19;;;;;;;;;;;;;;;1.42;97.94;103316.88;5060389;28;19920;-73
2024/01/12 09:41:45;;;;;;;;;;;;;;;1.46;98.98;103308.53;5055980;28;19925;-73
2024/01/12 09:44:11;;;;;;;;;;;;;;;1.49;98.97;103313.91;5054376;28;19916;-74
2024/01/12 09:46:41;;;;;;;;;;;;;;;1.56;99.56;103305.75;5054556;28;20292;-74
2024/01/12 09:49:07;;;;;;;;;;;;;;;1.62;99.07;103294.91;5056624;28;19924;-73
2024/01/12 09:51:32;;;;;;;;;;;;;;;1.66;98.45;103297.78;5049408;28;20338;-74
2024/01/12 09:53:57;;;;;;;;;;;;;;;1.75;97.24;103306.94;5036856;28;20270;-74
2024/01/12 09:56:23;;;;;;;;;;;;;;;1.80;97.47;103310.72;5052046;28;20281;-73
2024/01/12 09:58:50;;;;;;;;;;;;;;;1.81;97.57;103307.31;5020306;28;22177;-73
2024/01/12 10:01:17;;;;;;;;;;;;;;;1.85;98.50;103309.31;5049809;28;20369;-73
2024/01/12 10:03:43;;;;;;;;;;;;;;;1.94;97.17;103301.25;5027849;28;19921;-73
2024/01/12 10:06:08;;;;;;;;;;;;;;;1.96;97.42;103305.72;5031341;28;20335;-73
2024/01/12 10:08:37;;;;;;;;;;;;;;;2.00;97.70;103307.69;5022525;28;19948;-73
2024/01/12 10:11:02;;;;;;;;;;;;;;;2.00;94.55;103310.28;5045947;28;19921;-73
2024/01/12 10:13:29;;;;;;;;;;;;;;;1.98;96.60;103311.88;5067569;28;20284;-74
2024/01/12 10:15:54;;;;;;;;;;;;;;;1.98;94.74;103317.03;5036871;28;19917;-74
2024/01/12 10:18:19;;;;;;;;;;;;;;;1.99;97.06;103324.00;5036227;28;19918;-73
2024/01/12 10:20:45;;;;;;;;;;;;;;;2.03;nan;103319.94;5031166;28;19921;-73
2024/01/12 10:23:10;;;;;;;;;;;;;;;2.09;96.40;103325.50;5049640;28;19928;-73
2024/01/12 10:25:35;;;;;;;;;;;;;;;2.14;96.55;103323.19;5065094;28;19931;-73
2024/01/12 10:28:01;;;;;;;;;;;;;;;2.13;96.55;103321.41;5032003;28;19917;-73
2024/01/12 10:30:27;;;;;;;;;;;;;;;2.13;96.27;103311.06;5049330;28;19924;-74
2024/01/12 10:32:53;;;;;;;;;;;;;;;2.15;97.11;103312.06;5049419;28;20369;-74
2024/01/12 10:35:21;;;;;;;;;;;;;;;2.17;96.44;103306.19;5049587;28;19966;-73
2024/01/12 10:37:47;;;;;;;;;;;;;;;2.21;96.25;103304.66;5048143;28;19987;-73
2024/01/12 10:40:16;;;;;;;;;;;;;;;2.26;95.32;103295.50;5052388;28;20385;-74
2024/01/12 10:42:45;;;;;;;;;;;;;;;2.29;95.91;103293.09;5052110;28;20011;-74
2024/01/12 10:45:12;;;;;;;;;;;;;;;2.36;95.79;103292.69;5052630;28;19916;-73
2024/01/12 10:47:38;;;;;;;;;;;;;;;2.40;95.67;103289.47;5052271;28;20013;-73
2024/01/12 10:50:04;;;;;;;;;;;;;;;2.46;95.62;103286.38;5052606;28;19924;-73
2024/01/12 10:52:35;;;;;;;;;;;;;;;2.47;94.53;103293.34;5051756;28;19920;-73
2024/01/12 10:55:04;;;;;;;;;;;;;;;2.49;95.38;103290.84;5052139;28;19964;-73
2024/01/12 10:57:30;;;;;;;;;;;;;;;2.50;95.21;103290.94;5052015;28;19913;-73
2024/01/12 10:59:56;;;;;;;;;;;;;;;2.55;95.04;103298.97;5052504;28;19917;-73
2024/01/12 11:02:22;;;;;;;;;;;;;;;2.51;94.23;103290.13;5052192;28;19924;-73
2024/01/12 11:04:48;;;;;;;;;;;;;;;2.54;94.11;103284.25;5021123;28;20276;-73
2024/01/12 11:07:14;;;;;;;;;;;;;;;2.54;95.78;103285.16;5048281;28;19921;-73
2024/01/12 11:09:40;;;;;;;;;;;;;;;2.54;94.57;103279.97;5048661;28;20004;-73
2024/01/12 11:12:09;;;;;;;;;;;;;;;2.52;94.60;103289.31;5031445;28;20007;-73
2024/01/12 11:14:36;;;;;;;;;;;;;;;2.52;95.10;103291.03;5051437;28;19913;-73
2024/01/12 11:17:01;;;;;;;;;;;;;;;2.53;93.47;103282.44;5051997;28;19916;-73
2024/01/12 11:19:27;;;;;;;;;;;;;;;2.52;94.67;103286.75;5035361;28;20003;-73
2024/01/12 11:22:02;;;;;;;;;;;;;;;2.54;94.35;103273.88;5051362;28;19923;-73
2024/01/12 11:24:28;;;;;;;;;;;;;;;2.53;94.96;103274.69;5052135;28;19979;-73
2024/01/12 11:26:53;;;;;;;;;;;;;;;2.53;94.27;103274.69;5050481;28;19921;-73
2024/01/12 11:29:19;;;;;;;;;;;;;;;2.53;94.71;103287.63;5031817;28;20306;-73
2024/01/12 11:31:51;;;;;;;;;;;;;;;2.56;94.60;103283.53;5031862;28;19923;-73
2024/01/12 11:34:16;;;;;;;;;;;;;;;2.58;94.37;103281.03;5048333;28;19922;-73
2024/01/12 11:36:42;;;;;;;;;;;;;;;2.58;94.53;103276.75;5047936;28;19917;-73
2024/01/12 11:39:11;;;;;;;;;;;;;;;2.57;94.91;103279.25;5031834;28;19967;-73
2024/01/12 11:41:42;;;;;;;;;;;;;;;2.55;93.77;103286.03;5065080;28;19921;-73
2024/01/12 11:44:07;;;;;;;;;;;;;;;2.54;94.68;103289.41;5038516;28;20205;-73
2024/01/12 11:46:33;;;;;;;;;;;;;;;2.52;93.61;103284.16;5031338;28;20399;-73
2024/01/12 11:48:58;;;;;;;;;;;;;;;2.48;93.38;103276.13;5031560;28;19925;-73
2024/01/12 11:51:24;;;;;;;;;;;;;;;2.47;93.80;103285.59;5030904;28;20274;-73
2024/01/12 11:53:51;;;;;;;;;;;;;;;2.47;94.27;103269.16;5045641;28;20327;-73
2024/01/12 11:56:16;;;;;;;;;;;;;;;2.49;93.26;103270.16;5050401;28;19960;-73
2024/01/12 11:58:42;;;;;;;;;;;;;;;2.48;94.62;103271.81;5034789;28;20339;-73
2024/01/12 12:01:08;;;;;;;;;;;;;;;2.47;94.05;103267.47;5051252;28;19974;-73
2024/01/12 12:03:33;;;;;;;;;;;;;;;2.44;93.94;103277.59;5051155;28;19913;-73
2024/01/12 12:05:59;;;;;;;;;;;;;;;2.43;94.33;103271.56;5033221;28;20372;-73
2024/01/12 12:08:25;;;;;;;;;;;;;;;2.43;94.16;103263.78;5034666;28;20526;-73
2024/01/12 12:10:50;;;;;;;;;;;;;;;2.42;94.18;103254.22;5050473;28;19917;-73
2024/01/12 12:13:15;;;;;;;;;;;;;;;2.46;94.21;103247.56;5077439;23;19924;-73
2024/01/12 12:15:41;;;;;;;;;;;;;;;2.45;93.88;103240.59;5054371;28;19925;-76
2024/01/12 12:18:06;;;;;;;;;;;;;;;2.41;93.45;103231.75;5115038;22;20027;-75
2024/01/12 12:20:31;;;;;;;;;;;;;;;2.40;94.31;103232.56;5054343;28;20066;-76
2024/01/12 12:22:57;;;;;;;;;;;;;;;2.43;94.04;103224.09;5053146;28;20291;-76
2024/01/12 12:25:22;;;;;;;;;;;;;;;2.41;94.93;103226.59;5053590;28;19924;-73
2024/01/12 12:32:50;;;;;;;;;;;;;;;2.46;94.24;103207.81;5098614;22;19928;-73
2024/01/12 12:35:17;;;;;;;;;;;;;;;2.47;94.60;103207.03;5081313;23;19936;-71
2024/01/12 12:37:42;;;;;;;;;;;;;;;2.50;94.26;103196.84;5084056;22;19928;-72